TimeCDT,TemperatureF,Dew PointF,Humidity,Sea Level PressureIn,VisibilityMPH,Wind Direction,Wind SpeedMPH,Gust SpeedMPH,PrecipitationIn,Events,Conditions,WindDirDegrees,DateUTC
12:53 AM,64.9,63.0,93,30.16,6.0,Calm,Calm,-,N/A,,Clear,0,2012-10-12 05:53:00
1:53 AM,64.0,62.1,93,30.16,6.0,Calm,Calm,-,N/A,,Mostly Cloudy,0,2012-10-12 06:53:00
2:53 AM,64.4,62.6,94,30.18,6.0,Calm,Calm,-,N/A,,Overcast,0,2012-10-12 07:53:00
3:53 AM,66.9,64.0,90,30.16,7.0,Calm,Calm,-,N/A,,Overcast,0,2012-10-12 08:53:00
4:53 AM,66.9,64.0,90,30.15,8.0,Calm,Calm,-,N/A,,Overcast,0,2012-10-12 09:53:00
5:53 AM,68.0,64.9,90,30.17,8.0,East,3.5,-,N/A,,Overcast,90,2012-10-12 10:53:00
6:53 AM,68.0,64.0,87,30.17,9.0,Variable,4.6,-,N/A,,Clear,0,2012-10-12 11:53:00
7:53 AM,66.9,64.0,90,30.20,6.0,East,4.6,-,N/A,,Mostly Cloudy,100,2012-10-12 12:53:00
9:53 AM,75.0,66.0,73,30.22,10.0,South,3.5,-,N/A,,Partly Cloudy,190,2012-10-12 14:53:00
10:53 AM,78.8,62.6,57,30.25,10.0,SW,4.6,-,N/A,,Mostly Cloudy,220,2012-10-12 15:53:00
11:53 AM,77.0,63.0,62,30.23,10.0,Calm,Calm,-,N/A,,Overcast,0,2012-10-12 16:53:00
12:43 PM,69.8,64.4,83,30.25,1.8,ENE,10.4,-,0.09,Rain,Heavy Rain,60,2012-10-12 17:43:00
12:53 PM,68.0,64.9,90,30.24,2.0,ENE,10.4,-,0.13,Rain,Heavy Rain,70,2012-10-12 17:53:00
1:05 PM,68.0,64.4,88,30.25,6.0,ENE,10.4,-,0.00,Rain,Light Rain,70,2012-10-12 18:05:00
1:53 PM,68.0,64.9,90,30.22,10.0,ENE,11.5,-,0.04,,Overcast,70,2012-10-12 18:53:00
2:53 PM,69.8,66.2,88,30.22,10.0,ENE,6.9,-,N/A,,Overcast,70,2012-10-12 19:53:00
3:53 PM,70.0,66.0,87,30.20,9.0,East,6.9,-,0.00,Rain,Light Rain,80,2012-10-12 20:53:00
4:53 PM,68.0,64.4,88,30.23,8.0,ENE,10.4,-,N/A,,Overcast,70,2012-10-12 21:53:00
4:59 PM,68.0,64.4,88,30.23,8.0,ENE,11.5,-,N/A,Thunderstorm,Overcast,70,2012-10-12 21:59:00
5:09 PM,68.0,64.4,88,30.23,6.0,NE,10.4,-,0.00,Rain-Thunderstorm,Light Rain,50,2012-10-12 22:09:00
5:20 PM,66.2,64.4,94,30.23,7.0,ENE,9.2,-,0.00,Rain-Thunderstorm,Light Rain,60,2012-10-12 22:20:00
5:27 PM,66.2,64.4,94,30.23,7.0,ENE,6.9,-,N/A,,Overcast,60,2012-10-12 22:27:00
5:53 PM,66.9,64.0,90,30.22,7.0,Calm,Calm,-,0.00,,Overcast,0,2012-10-12 22:53:00
6:11 PM,66.2,64.4,94,30.24,1.8,East,4.6,-,0.06,Rain,Heavy Rain,90,2012-10-12 23:11:00
6:36 PM,66.2,64.4,94,30.22,2.0,SSE,4.6,-,N/A,Rain,Rain,160,2012-10-12 23:36:00
6:49 PM,66.2,64.4,94,30.20,4.0,SE,8.1,-,0.17,Rain,Rain,130,2012-10-12 23:49:00
6:53 PM,66.0,64.0,93,30.17,3.0,SE,9.2,-,0.18,Rain,Rain,130,2012-10-12 23:53:00
7:44 PM,66.2,64.4,94,30.17,1.8,Calm,Calm,-,0.02,,Partly Cloudy,0,2012-10-13 00:44:00
7:53 PM,66.0,64.0,93,30.17,4.0,Calm,Calm,-,0.02,,Clear,0,2012-10-13 00:53:00
8:16 PM,66.2,64.4,94,30.17,2.5,Calm,Calm,-,N/A,,Clear,0,2012-10-13 01:16:00
8:27 PM,64.4,62.6,94,30.18,1.2,Calm,Calm,-,N/A,,Clear,0,2012-10-13 01:27:00
8:43 PM,64.4,64.4,100,30.17,3.0,Calm,Calm,-,N/A,,Clear,0,2012-10-13 01:43:00
8:53 PM,64.4,62.6,94,30.17,3.0,Calm,Calm,-,N/A,,Clear,0,2012-10-13 01:53:00
8:56 PM,64.4,62.6,94,30.17,1.2,East,3.5,-,N/A,,Partly Cloudy,90,2012-10-13 01:56:00
8:58 PM,64.4,62.6,94,30.17,0.8,East,3.5,-,N/A,,Mist,80,2012-10-13 01:58:00
9:08 PM,64.4,62.6,94,30.17,2.0,East,4.6,-,N/A,,Clear,80,2012-10-13 02:08:00
9:17 PM,64.4,62.6,94,30.17,3.0,East,4.6,-,N/A,,Clear,90,2012-10-13 02:17:00
9:53 PM,64.9,63.0,93,30.17,4.0,East,4.6,-,N/A,,Clear,80,2012-10-13 02:53:00
10:53 PM,64.0,63.0,96,30.16,3.0,East,4.6,-,N/A,,Clear,90,2012-10-13 03:53:00
11:40 PM,64.4,62.6,94,30.18,2.5,ESE,3.5,-,N/A,,Clear,110,2012-10-13 04:40:00
11:53 PM,64.0,63.0,96,30.16,2.5,ESE,3.5,-,N/A,,Clear,120,2012-10-13 04:53:00